Time;durP1;ratioP1;P1;durP2;ratioP2;P2;SDS_P1;SDS_P2;PMS_P1;PMS_P2;Temp;Humidity;BMP_temperature;BMP_pressure;BME280_temperature;BME280_humidity;BME280_pressure;Samples;Min_cycle;Max_cycle;Signal;HPM_P1;HPM_P2
2021/07/25 00:00:18;;;;;;;;;;;;;;;26.26;44.73;100764.31;1783734;79;21064;-57
2021/07/25 00:02:45;;;;;;;;;;;;;;;26.27;44.74;100760.91;1779549;79;20140;-57
2021/07/25 00:05:12;;;;;;;;;;;;;;;26.27;44.79;100758.12;1780814;80;20282;-57
2021/07/25 00:07:39;;;;;;;;;;;;;;;26.26;44.84;100750.36;1779621;79;20160;-57
2021/07/25 00:10:06;;;;;;;;;;;;;;;26.27;44.87;100753.94;1754194;80;20396;-57
2021/07/25 00:12:32;;;;;;;;;;;;;;;26.27;44.88;100759.52;1785476;79;21162;-57
2021/07/25 00:14:58;;;;;;;;;;;;;;;26.27;44.92;100753.36;1782576;79;20737;-57
2021/07/25 00:17:24;;;;;;;;;;;;;;;26.28;44.95;100766.14;1784380;79;20190;-57
2021/07/25 00:19:50;;;;;;;;;;;;;;;26.28;44.96;100761.14;1784523;79;20247;-57
2021/07/25 00:22:16;;;;;;;;;;;;;;;26.28;45.00;100756.38;1781801;79;20233;-57
2021/07/25 00:24:50;;;;;;;;;;;;;;;26.28;45.03;100758.35;1782838;79;21539;-57
2021/07/25 00:27:10;;;;;;;;;;;;;;;26.28;45.05;100754.98;1784450;79;20207;-57
2021/07/25 00:29:36;;;;;;;;;;;;;;;26.28;45.06;100755.56;1778849;79;20223;-57
2021/07/25 00:32:03;;;;;;;;;;;;;;;26.28;45.11;100756.38;1783995;79;20215;-57
2021/07/25 00:34:30;;;;;;;;;;;;;;;26.28;45.15;100756.38;1785808;79;20439;-57
2021/07/25 00:36:56;;;;;;;;;;;;;;;26.28;45.19;100753.59;1788493;79;21045;-57
2021/07/25 00:39:22;;;;;;;;;;;;;;;26.28;45.22;100763.35;1813889;78;20146;-57
2021/07/25 00:41:48;;;;;;;;;;;;;;;26.29;45.25;100757.19;1806116;78;20805;-57
2021/07/25 00:44:14;;;;;;;;;;;;;;;26.29;45.26;100755.80;1802468;78;21159;-56
2021/07/25 00:46:40;;;;;;;;;;;;;;;26.28;45.30;100756.95;1804782;78;20247;-57
2021/07/25 00:49:05;;;;;;;;;;;;;;;26.29;45.35;100755.22;1766037;79;21048;-57
2021/07/25 00:51:31;;;;;;;;;;;;;;;26.28;45.38;100752.20;1797461;78;20197;-57
2021/07/25 00:53:57;;;;;;;;;;;;;;;26.29;45.38;100755.80;1768183;79;20085;-57
2021/07/25 00:56:23;;;;;;;;;;;;;;;26.29;45.43;100756.61;1767850;80;20186;-57
2021/07/25 00:58:49;;;;;;;;;;;;;;;26.28;45.44;100754.98;1775131;79;20240;-57
2021/07/25 01:01:17;;;;;;;;;;;;;;;26.29;45.49;100755.80;1773031;80;21139;-57
2021/07/25 01:04:05;;;;;;;;;;;;;;;26.29;45.51;100749.64;1752581;79;20199;-57
2021/07/25 01:06:47;;;;;;;;;;;;;;;26.29;45.55;100749.64;1792194;78;20378;-57
2021/07/25 01:09:16;;;;;;;;;;;;;;;26.29;45.56;100746.85;1770458;79;20268;-57
2021/07/25 01:11:52;;;;;;;;;;;;;;;26.28;45.57;100752.78;1764660;80;20131;-57
2021/07/25 01:14:23;;;;;;;;;;;;;;;26.29;45.62;100752.43;1769262;80;22816;-56
2021/07/25 01:16:49;;;;;;;;;;;;;;;26.29;45.67;100755.22;1799062;79;20132;-56
2021/07/25 01:19:15;;;;;;;;;;;;;;;26.29;45.68;100751.62;1798026;79;20696;-56
2021/07/25 01:21:41;;;;;;;;;;;;;;;26.28;45.70;100753.59;1765029;79;20297;-56
2021/07/25 01:24:07;;;;;;;;;;;;;;;26.28;45.74;100753.59;1769449;80;20231;-56
2021/07/25 01:26:35;;;;;;;;;;;;;;;26.27;45.77;100756.14;1798670;78;21243;-55
2021/07/25 01:29:02;;;;;;;;;;;;;;;26.27;45.78;100756.14;1798933;78;20137;-56
2021/07/25 01:31:37;;;;;;;;;;;;;;;26.27;45.82;100754.75;1765809;80;20135;-56
2021/07/25 01:34:03;;;;;;;;;;;;;;;26.27;45.86;100760.33;1771735;80;20485;-55
2021/07/25 01:36:29;;;;;;;;;;;;;;;26.28;45.87;100765.33;1767943;80;20188;-56
2021/07/25 01:38:55;;;;;;;;;;;;;;;26.27;45.92;100765.91;1767521;79;21160;-56
2021/07/25 01:41:21;;;;;;;;;;;;;;;26.28;45.95;100766.72;1764090;80;20230;-56
2021/07/25 01:43:49;;;;;;;;;;;;;;;26.27;45.97;100768.70;1767433;81;20260;-56
2021/07/25 01:46:15;;;;;;;;;;;;;;;26.28;46.02;100767.53;1763228;80;20281;-56
2021/07/25 01:48:42;;;;;;;;;;;;;;;26.28;46.03;100772.30;1764645;80;20383;-56
2021/07/25 01:51:08;;;;;;;;;;;;;;;26.28;46.06;100766.14;1767551;80;21717;-56
2021/07/25 01:53:34;;;;;;;;;;;;;;;26.27;46.08;100763.12;1735390;81;20203;-56
2021/07/25 01:56:00;;;;;;;;;;;;;;;26.27;46.10;100764.52;1765886;80;20277;-56
2021/07/25 01:58:26;;;;;;;;;;;;;;;26.27;46.15;100769.27;1765594;80;20641;-56
2021/07/25 02:00:52;;;;;;;;;;;;;;;26.27;46.16;100770.09;1766564;80;20166;-56
2021/07/25 02:03:23;;;;;;;;;;;;;;;26.27;46.21;100774.85;1768384;80;21095;-56
2021/07/25 02:05:48;;;;;;;;;;;;;;;26.27;46.25;100779.85;1785959;80;21597;-56
2021/07/25 02:08:15;;;;;;;;;;;;;;;26.27;46.26;100774.85;1739312;80;20234;-56
2021/07/25 02:10:47;;;;;;;;;;;;;;;26.27;46.30;100777.64;1787680;79;20784;-56
2021/07/25 02:13:13;;;;;;;;;;;;;;;26.26;46.36;100775.47;1766358;80;20137;-56
2021/07/25 02:15:39;;;;;;;;;;;;;;;26.27;46.36;100779.04;1777161;79;20898;-56
2021/07/25 02:18:05;;;;;;;;;;;;;;;26.27;46.37;100780.44;1778486;79;20124;-56
2021/07/25 02:20:31;;;;;;;;;;;;;;;26.27;46.41;100782.64;1774235;79;20200;-56
2021/07/25 02:22:57;;;;;;;;;;;;;;;26.27;46.45;100784.61;1778011;79;20171;-56
2021/07/25 02:25:23;;;;;;;;;;;;;;;26.27;46.48;100779.85;1777319;79;20239;-56
2021/07/25 02:27:49;;;;;;;;;;;;;;;26.27;46.52;100781.83;1776859;79;21120;-56
2021/07/25 02:30:15;;;;;;;;;;;;;;;26.27;46.55;100791.01;1780273;79;20200;-56
2021/07/25 02:32:40;;;;;;;;;;;;;;;26.26;46.58;100783.02;1780236;79;20208;-55
2021/07/25 02:35:07;;;;;;;;;;;;;;;26.26;46.61;100782.44;1779427;79;20210;-56
2021/07/25 02:37:33;;;;;;;;;;;;;;;26.27;46.64;100786.01;1777673;79;20980;-56
2021/07/25 02:39:59;;;;;;;;;;;;;;;26.26;46.67;100782.44;1780485;79;21184;-56
2021/07/25 02:42:25;;;;;;;;;;;;;;;26.26;46.71;100781.05;1779949;79;20365;-56
2021/07/25 02:44:51;;;;;;;;;;;;;;;26.27;46.72;100789.61;1780273;79;20262;-56
2021/07/25 02:47:17;;;;;;;;;;;;;;;26.25;46.75;100784.99;1781181;79;20315;-56
2021/07/25 02:49:43;;;;;;;;;;;;;;;26.27;46.75;100790.19;1775419;79;20215;-56
2021/07/25 02:52:09;;;;;;;;;;;;;;;26.26;46.81;100788.59;1775374;79;21064;-56
2021/07/25 02:54:35;;;;;;;;;;;;;;;26.26;46.84;100793.59;1782099;79;20206;-56
2021/07/25 02:57:01;;;;;;;;;;;;;;;26.26;46.85;100789.41;1781248;79;20302;-56
2021/07/25 02:59:28;;;;;;;;;;;;;;;26.25;46.87;100787.78;1780387;79;20187;-56
2021/07/25 03:01:54;;;;;;;;;;;;;;;26.26;46.89;100793.59;1780127;79;20184;-56
2021/07/25 03:04:20;;;;;;;;;;;;;;;26.25;46.93;100794.75;1781279;79;20962;-56
2021/07/25 03:06:46;;;;;;;;;;;;;;;26.25;46.97;100790.57;1779777;79;20798;-57
2021/07/25 03:09:12;;;;;;;;;;;;;;;26.25;46.98;100789.17;1781870;79;20232;-56
2021/07/25 03:11:39;;;;;;;;;;;;;;;26.26;47.00;100795.56;1776150;79;20237;-56
2021/07/25 03:14:06;;;;;;;;;;;;;;;26.25;47.01;100796.15;1778154;79;20189;-56
2021/07/25 03:16:32;;;;;;;;;;;;;;;26.25;47.05;100796.15;1780237;79;21071;-56
2021/07/25 03:18:58;;;;;;;;;;;;;;;26.25;47.07;100793.94;1779288;79;20551;-56
2021/07/25 03:21:24;;;;;;;;;;;;;;;26.25;47.11;100792.55;1778634;79;20287;-56
2021/07/25 03:23:50;;;;;;;;;;;;;;;26.25;47.13;100803.13;1775898;79;20183;-56
2021/07/25 03:26:17;;;;;;;;;;;;;;;26.25;47.16;100801.73;1778627;79;20200;-56
2021/07/25 03:28:43;;;;;;;;;;;;;;;26.24;47.18;100800.09;1777929;79;21129;-56
2021/07/25 03:31:08;;;;;;;;;;;;;;;26.24;47.19;100809.86;1779715;80;20221;-56
2021/07/25 03:33:34;;;;;;;;;;;;;;;26.24;47.20;100807.07;1780290;79;20712;-56
2021/07/25 03:36:00;;;;;;;;;;;;;;;26.24;47.25;100804.28;1780240;79;20290;-57
2021/07/25 03:38:26;;;;;;;;;;;;;;;26.24;47.27;100812.65;1778858;79;20120;-56
2021/07/25 03:40:53;;;;;;;;;;;;;;;26.25;47.28;100807.88;1782316;79;21995;-56
2021/07/25 03:43:19;;;;;;;;;;;;;;;26.24;47.32;100809.86;1780348;79;20142;-56
2021/07/25 03:45:46;;;;;;;;;;;;;;;26.24;47.34;100812.65;1780195;79;20243;-56
2021/07/25 03:48:13;;;;;;;;;;;;;;;26.24;47.34;100811.83;1777505;79;20144;-56
2021/07/25 03:50:40;;;;;;;;;;;;;;;26.23;47.38;100816.59;1777071;79;20185;-57
2021/07/25 03:53:06;;;;;;;;;;;;;;;26.24;47.40;100812.65;1774551;79;21141;-56
2021/07/25 03:55:34;;;;;;;;;;;;;;;26.24;47.40;100819.63;1776792;79;20116;-56
2021/07/25 03:58:00;;;;;;;;;;;;;;;26.23;47.42;100815.20;1777946;79;20193;-56
2021/07/25 04:00:26;;;;;;;;;;;;;;;26.23;47.44;100822.75;1779813;79;20480;-56
2021/07/25 04:02:51;;;;;;;;;;;;;;;26.23;47.47;100823.56;1775165;79;20816;-56
2021/07/25 04:05:18;;;;;;;;;;;;;;;26.23;47.48;100829.14;1778181;79;22079;-56
2021/07/25 04:07:43;;;;;;;;;;;;;;;26.23;47.51;100822.75;1777605;79;20210;-56
2021/07/25 04:10:10;;;;;;;;;;;;;;;26.22;47.52;100824.76;1778344;79;20251;-57
2021/07/25 04:12:36;;;;;;;;;;;;;;;26.23;47.51;100835.30;1776259;79;20160;-57
2021/07/25 04:15:04;;;;;;;;;;;;;;;26.23;47.55;100837.52;1775269;79;20175;-57
2021/07/25 04:17:30;;;;;;;;;;;;;;;26.24;47.57;100841.12;1776992;80;21113;-57
2021/07/25 04:19:56;;;;;;;;;;;;;;;26.24;47.59;100837.75;1779716;79;20183;-56
2021/07/25 04:22:22;;;;;;;;;;;;;;;26.24;47.62;100838.33;1779360;79;20233;-56
2021/07/25 04:24:48;;;;;;;;;;;;;;;26.23;47.64;100837.52;1779341;79;20508;-56
2021/07/25 04:27:15;;;;;;;;;;;;;;;26.24;47.64;100839.14;1778998;79;20748;-56
2021/07/25 04:29:42;;;;;;;;;;;;;;;26.24;47.65;100842.52;1750375;80;21170;-56
2021/07/25 04:32:09;;;;;;;;;;;;;;;26.24;47.70;100841.12;1776994;79;20442;-56
2021/07/25 04:34:36;;;;;;;;;;;;;;;26.23;47.68;100838.91;1780757;79;20382;-56
2021/07/25 04:37:04;;;;;;;;;;;;;;;26.24;47.72;100836.36;1776857;79;20438;-56
2021/07/25 04:39:31;;;;;;;;;;;;;;;26.24;47.73;100839.14;1778563;79;20127;-57
2021/07/25 04:41:58;;;;;;;;;;;;;;;26.23;47.74;100833.33;1779347;79;21292;-56
2021/07/25 04:44:29;;;;;;;;;;;;;;;26.23;47.75;100836.12;1781729;79;20690;-56
2021/07/25 04:46:55;;;;;;;;;;;;;;;26.25;47.77;100835.77;1781912;79;20138;-56
2021/07/25 04:49:23;;;;;;;;;;;;;;;26.22;47.69;100829.52;1782061;79;20186;-56
2021/07/25 04:51:51;;;;;;;;;;;;;;;26.20;47.59;100833.23;1779289;79;20215;-56
2021/07/25 04:54:18;;;;;;;;;;;;;;;26.14;47.49;100834.03;1781435;79;21124;-56
2021/07/25 04:56:59;;;;;;;;;;;;;;;26.10;47.40;100840.09;1778531;79;20151;-56
2021/07/25 04:59:29;;;;;;;;;;;;;;;26.06;47.30;100839.75;1781219;79;20220;-56
2021/07/25 05:02:03;;;;;;;;;;;;;;;26.01;47.19;100838.05;1781523;79;20431;-56
2021/07/25 05:04:25;;;;;;;;;;;;;;;25.96;47.10;100840.27;1779517;79;22277;-57
2021/07/25 05:06:52;;;;;;;;;;;;;;;25.91;46.98;100841.33;1779356;80;21847;-57
2021/07/25 05:09:18;;;;;;;;;;;;;;;25.86;46.82;100843.78;1775338;79;20220;-56
2021/07/25 05:12:04;;;;;;;;;;;;;;;25.80;46.65;100845.78;1779723;79;20180;-56
2021/07/25 05:14:33;;;;;;;;;;;;;;;25.74;46.52;100847.98;1779264;79;20255;-57
2021/07/25 05:17:05;;;;;;;;;;;;;;;25.69;46.35;100854.37;1784145;79;20246;-56
2021/07/25 05:19:47;;;;;;;;;;;;;;;25.64;46.22;100853.22;1765911;79;21138;-55
2021/07/25 05:22:29;;;;;;;;;;;;;;;25.59;46.09;100854.88;1785664;79;20488;-55
2021/07/25 05:24:55;;;;;;;;;;;;;;;25.55;45.95;100862.28;1776841;79;20485;-58
2021/07/25 05:27:23;;;;;;;;;;;;;;;25.49;45.81;100863.09;1780643;79;22006;-57
2021/07/25 05:29:50;;;;;;;;;;;;;;;25.45;45.69;100864.37;1781670;79;20517;-57
2021/07/25 05:32:16;;;;;;;;;;;;;;;25.42;45.58;100869.23;1784810;79;21903;-58
2021/07/25 05:34:42;;;;;;;;;;;;;;;25.37;45.45;100862.52;1787891;79;20190;-58
2021/07/25 05:37:08;;;;;;;;;;;;;;;25.33;45.33;100866.35;1785356;79;20178;-57
2021/07/25 05:39:34;;;;;;;;;;;;;;;25.31;45.21;100874.23;1780908;79;20184;-57
2021/07/25 05:41:59;;;;;;;;;;;;;;;25.27;45.09;100870.52;1778786;79;20788;-56
2021/07/25 05:44:26;;;;;;;;;;;;;;;25.24;44.97;100879.00;1785589;79;22107;-57
2021/07/25 05:46:52;;;;;;;;;;;;;;;25.20;44.87;100876.67;1785699;79;20184;-56
2021/07/25 05:49:18;;;;;;;;;;;;;;;25.17;44.76;100876.53;1783709;79;20183;-54
2021/07/25 05:51:43;;;;;;;;;;;;;;;25.14;44.63;100878.05;1782133;79;20159;-59
2021/07/25 05:54:10;;;;;;;;;;;;;;;25.10;44.50;100885.47;1782866;79;20474;-56
2021/07/25 05:56:36;;;;;;;;;;;;;;;25.08;44.35;100880.03;1784470;79;21906;-58
2021/07/25 05:59:02;;;;;;;;;;;;;;;25.04;44.23;100882.67;1784758;79;20144;-57
2021/07/25 06:01:29;;;;;;;;;;;;;;;25.01;44.10;100883.37;1782982;79;20740;-57
2021/07/25 06:03:55;;;;;;;;;;;;;;;24.98;43.98;100880.70;1784278;79;20498;-57
2021/07/25 06:06:21;;;;;;;;;;;;;;;24.95;43.87;100877.81;1783389;79;20260;-56
2021/07/25 06:08:47;;;;;;;;;;;;;;;24.92;43.74;100883.47;1778825;79;23309;-57
2021/07/25 06:11:23;;;;;;;;;;;;;;;24.90;43.62;100879.42;1779195;79;20158;-56
2021/07/25 06:13:50;;;;;;;;;;;;;;;24.86;43.48;100880.69;1783472;79;20427;-58
2021/07/25 06:16:16;;;;;;;;;;;;;;;24.85;43.35;100880.99;1782449;79;20607;-57
2021/07/25 06:18:45;;;;;;;;;;;;;;;24.83;43.23;100888.86;1782100;79;20203;-55
2021/07/25 06:21:10;;;;;;;;;;;;;;;24.80;43.12;100885.38;1779118;79;22109;-57
2021/07/25 06:23:35;;;;;;;;;;;;;;;24.77;43.00;100887.47;1781584;79;20799;-56
2021/07/25 06:26:01;;;;;;;;;;;;;;;24.75;42.91;100888.37;1779282;79;20210;-57
2021/07/25 06:28:27;;;;;;;;;;;;;;;24.74;42.82;100885.38;1781754;79;20166;-56
2021/07/25 06:30:53;;;;;;;;;;;;;;;24.71;42.70;100891.61;1782207;79;20146;-56
2021/07/25 06:33:19;;;;;;;;;;;;;;;24.69;42.64;100888.37;1780731;79;21188;-57
2021/07/25 06:35:45;;;;;;;;;;;;;;;24.67;42.54;100890.67;1784715;79;20187;-57
2021/07/25 06:38:15;;;;;;;;;;;;;;;24.65;42.45;100895.78;1780077;79;20247;-57
2021/07/25 06:40:44;;;;;;;;;;;;;;;24.64;42.40;100896.36;1775241;79;20260;-57
2021/07/25 06:43:10;;;;;;;;;;;;;;;24.62;42.31;100895.06;1777071;79;20140;-56
2021/07/25 06:45:36;;;;;;;;;;;;;;;24.61;42.28;100894.27;1776654;79;21064;-57
2021/07/25 06:48:02;;;;;;;;;;;;;;;24.60;42.25;100896.81;1775037;79;20746;-56
2021/07/25 06:50:29;;;;;;;;;;;;;;;24.59;42.24;100892.39;1772786;79;20189;-56
2021/07/25 06:52:56;;;;;;;;;;;;;;;24.60;42.29;100884.87;1775790;79;20207;-56
2021/07/25 06:55:29;;;;;;;;;;;;;;;24.60;42.31;100884.87;1777787;79;20193;-56
2021/07/25 06:57:55;;;;;;;;;;;;;;;24.61;42.36;100885.11;1772874;79;21158;-56
2021/07/25 07:00:21;;;;;;;;;;;;;;;24.62;42.43;100892.28;1774444;79;20309;-56
2021/07/25 07:02:52;;;;;;;;;;;;;;;24.63;42.48;100885.56;1773923;79;20275;-57
2021/07/25 07:05:19;;;;;;;;;;;;;;;24.64;42.55;100886.62;1776040;79;20443;-56
2021/07/25 07:07:47;;;;;;;;;;;;;;;24.65;42.59;100883.27;1771845;79;20217;-57
2021/07/25 07:10:14;;;;;;;;;;;;;;;24.65;42.65;100883.27;1773688;79;22145;-56
2021/07/25 07:12:40;;;;;;;;;;;;;;;24.69;42.71;100886.41;1775169;79;20317;-57
2021/07/25 07:15:07;;;;;;;;;;;;;;;24.73;42.78;100883.17;1770636;79;20212;-55
2021/07/25 07:17:33;;;;;;;;;;;;;;;24.79;42.93;100885.14;1771458;79;20430;-49
2021/07/25 07:19:59;;;;;;;;;;;;;;;24.84;43.01;100893.27;1777403;79;20250;-49
2021/07/25 07:22:27;;;;;;;;;;;;;;;24.90;43.08;100891.94;1776294;79;21112;-48
2021/07/25 07:24:54;;;;;;;;;;;;;;;24.94;43.21;100896.48;1773576;79;21799;-51
2021/07/25 07:27:22;;;;;;;;;;;;;;;24.99;43.32;100896.23;1776016;79;20219;-48
2021/07/25 07:29:49;;;;;;;;;;;;;;;25.04;43.44;100903.55;1774273;79;20150;-47
2021/07/25 07:32:15;;;;;;;;;;;;;;;25.10;43.50;100905.53;1774810;79;20163;-49
2021/07/25 07:34:41;;;;;;;;;;;;;;;25.12;43.59;100906.80;1779141;79;21099;-48
2021/07/25 07:37:07;;;;;;;;;;;;;;;25.17;43.63;100905.19;1777468;79;20864;-48
2021/07/25 07:39:35;;;;;;;;;;;;;;;25.20;43.66;100901.73;1782602;79;20257;-47
2021/07/25 07:42:02;;;;;;;;;;;;;;;25.23;43.72;100898.25;1782093;79;20135;-48
2021/07/25 07:44:28;;;;;;;;;;;;;;;25.27;43.77;100913.68;1781793;79;20512;-46
2021/07/25 07:46:54;;;;;;;;;;;;;;;25.29;43.79;100910.77;1783006;79;21133;-47
2021/07/25 07:49:20;;;;;;;;;;;;;;;25.33;43.82;100912.30;1785394;79;20753;-50
2021/07/25 07:51:46;;;;;;;;;;;;;;;25.36;43.86;100917.17;1782710;80;20245;-47
2021/07/25 07:54:12;;;;;;;;;;;;;;;25.38;43.89;100919.83;1780406;79;20166;-48
2021/07/25 07:56:37;;;;;;;;;;;;;;;25.41;43.92;100917.77;1779911;79;20168;-47
2021/07/25 07:59:03;;;;;;;;;;;;;;;25.43;43.96;100918.22;1783227;79;20977;-47
2021/07/25 08:01:29;;;;;;;;;;;;;;;25.45;43.98;100915.91;1782548;79;20760;-48
2021/07/25 08:03:55;;;;;;;;;;;;;;;25.48;44.00;100912.42;1781825;79;20870;-47
2021/07/25 08:06:21;;;;;;;;;;;;;;;25.51;44.04;100917.05;1781862;79;20485;-47
2021/07/25 08:08:47;;;;;;;;;;;;;;;25.54;44.06;100922.78;1781817;79;20235;-49
2021/07/25 08:11:13;;;;;;;;;;;;;;;25.56;44.10;100925.20;1783822;79;20997;-46
2021/07/25 08:13:39;;;;;;;;;;;;;;;25.57;44.14;100927.66;1781889;79;20480;-46
2021/07/25 08:16:05;;;;;;;;;;;;;;;25.59;44.16;100925.31;1781676;79;20168;-47
2021/07/25 08:18:31;;;;;;;;;;;;;;;25.62;44.17;100928.00;1780877;79;20240;-46
2021/07/25 08:20:57;;;;;;;;;;;;;;;25.62;44.21;100928.82;1784604;79;20246;-47
2021/07/25 08:23:22;;;;;;;;;;;;;;;25.66;44.22;100933.11;1784400;79;21300;-47
2021/07/25 08:25:48;;;;;;;;;;;;;;;25.66;44.23;100931.14;1782480;79;20591;-50
2021/07/25 08:28:14;;;;;;;;;;;;;;;25.68;44.27;100934.38;1783651;79;20234;-47
2021/07/25 08:30:40;;;;;;;;;;;;;;;25.69;44.28;100939.37;1783042;79;20673;-47
2021/07/25 08:33:06;;;;;;;;;;;;;;;25.71;44.32;100944.03;1784818;79;20182;-47
2021/07/25 08:35:32;;;;;;;;;;;;;;;25.72;44.34;100935.88;1784743;79;20935;-47
2021/07/25 08:37:58;;;;;;;;;;;;;;;25.74;44.36;100939.95;1783953;79;20206;-47
2021/07/25 08:40:25;;;;;;;;;;;;;;;25.76;44.37;100942.37;1780321;79;20200;-47
2021/07/25 08:43:07;;;;;;;;;;;;;;;25.76;44.41;100932.62;1778791;79;20535;-47
2021/07/25 08:45:34;;;;;;;;;;;;;;;25.76;44.41;100933.44;1781435;79;20253;-47
2021/07/25 08:48:07;;;;;;;;;;;;;;;25.78;44.43;100936.70;1781421;79;21102;-48
2021/07/25 08:50:31;;;;;;;;;;;;;;;25.78;44.45;100940.88;1781240;79;20556;-48
2021/07/25 08:52:57;;;;;;;;;;;;;;;25.80;44.46;100937.75;1778556;79;20302;-47
2021/07/25 08:55:23;;;;;;;;;;;;;;;25.80;44.50;100932.97;1781297;79;20187;-47
2021/07/25 08:57:50;;;;;;;;;;;;;;;25.82;44.50;100939.02;1778099;79;20148;-51
2021/07/25 09:00:19;;;;;;;;;;;;;;;25.83;44.53;100936.47;1780423;79;21051;-47
2021/07/25 09:02:48;;;;;;;;;;;;;;;25.84;44.55;100931.10;1778428;79;20397;-48
2021/07/25 09:05:14;;;;;;;;;;;;;;;25.85;44.57;100935.52;1777794;79;20452;-47
2021/07/25 09:07:41;;;;;;;;;;;;;;;25.86;44.58;100924.61;1778074;79;20457;-47
2021/07/25 09:10:16;;;;;;;;;;;;;;;25.87;44.58;100924.84;1777485;79;20147;-47
2021/07/25 09:12:42;;;;;;;;;;;;;;;25.88;44.63;100918.70;1780277;79;21944;-49
2021/07/25 09:15:11;;;;;;;;;;;;;;;25.89;44.65;100923.09;1779043;79;20266;-48
2021/07/25 09:17:37;;;;;;;;;;;;;;;25.89;44.66;100917.51;1780625;79;20206;-50
2021/07/25 09:20:20;;;;;;;;;;;;;;;25.90;44.68;100923.32;1779148;79;20450;-48
2021/07/25 09:22:53;;;;;;;;;;;;;;;25.90;44.68;100914.38;1782992;79;20141;-46
2021/07/25 09:25:28;;;;;;;;;;;;;;;25.92;44.72;100918.22;1778338;79;21265;-47
2021/07/25 09:28:00;;;;;;;;;;;;;;;25.92;44.72;100915.44;1778223;79;20429;-48
2021/07/25 09:30:30;;;;;;;;;;;;;;;25.93;44.74;100913.47;1772415;79;20092;-48
2021/07/25 09:32:56;;;;;;;;;;;;;;;25.93;44.76;100918.43;1778910;79;20449;-47
2021/07/25 09:35:26;;;;;;;;;;;;;;;25.92;44.75;100915.44;1776691;79;20165;-48
2021/07/25 09:37:56;;;;;;;;;;;;;;;25.94;44.80;100917.27;1776995;79;21280;-48
2021/07/25 09:40:26;;;;;;;;;;;;;;;25.95;44.79;100910.55;1781408;80;20191;-51
2021/07/25 09:43:20;;;;;;;;;;;;;;;25.95;44.83;100911.94;1779010;80;20129;-47
2021/07/25 09:46:01;;;;;;;;;;;;;;;25.96;44.84;100916.36;1776838;79;20156;-48
2021/07/25 09:48:33;;;;;;;;;;;;;;;25.97;44.85;100908.81;1774119;80;20152;-50
2021/07/25 09:51:00;;;;;;;;;;;;;;;25.97;44.87;100917.95;1782097;79;21192;-48
2021/07/25 09:53:44;;;;;;;;;;;;;;;25.98;44.89;100918.20;1781912;79;21521;-50
2021/07/25 09:56:14;;;;;;;;;;;;;;;25.98;44.90;100911.22;1777737;80;20096;-47
2021/07/25 09:58:40;;;;;;;;;;;;;;;25.99;44.92;100904.49;1779998;79;20173;-52
2021/07/25 10:01:06;;;;;;;;;;;;;;;26.00;44.94;100910.88;1782398;80;20140;-48
2021/07/25 10:03:33;;;;;;;;;;;;;;;26.00;44.95;100900.55;1778993;80;21100;-47
2021/07/25 10:06:00;;;;;;;;;;;;;;;26.01;44.96;100910.55;1750233;80;20438;-47
2021/07/25 10:08:26;;;;;;;;;;;;;;;26.03;44.98;100910.17;1778824;79;20165;-51
2021/07/25 10:10:53;;;;;;;;;;;;;;;26.04;44.99;100908.44;1782895;80;20180;-47
2021/07/25 10:13:21;;;;;;;;;;;;;;;26.04;45.00;100899.25;1780096;79;20168;-47
2021/07/25 10:15:55;;;;;;;;;;;;;;;26.06;45.03;100898.30;1784380;80;20896;-48
2021/07/25 10:18:22;;;;;;;;;;;;;;;26.07;45.02;100897.97;1782693;80;20167;-49
2021/07/25 10:20:56;;;;;;;;;;;;;;;26.08;45.03;100887.05;1782157;79;20492;-49
2021/07/25 10:23:32;;;;;;;;;;;;;;;26.09;45.03;100883.10;1783127;79;20183;-52
2021/07/25 10:26:01;;;;;;;;;;;;;;;26.10;45.04;100881.91;1782073;79;20164;-49
2021/07/25 10:28:28;;;;;;;;;;;;;;;26.11;45.06;100883.55;1779573;80;21601;-49
2021/07/25 10:30:54;;;;;;;;;;;;;;;26.13;45.06;100887.39;1780694;80;20164;-49
2021/07/25 10:33:20;;;;;;;;;;;;;;;26.14;45.05;100889.80;1783851;80;20238;-49
2021/07/25 10:35:46;;;;;;;;;;;;;;;26.16;45.05;100888.88;1783280;79;20202;-49
2021/07/25 10:38:12;;;;;;;;;;;;;;;26.19;45.07;100882.58;1783213;79;20137;-46
2021/07/25 10:40:38;;;;;;;;;;;;;;;26.20;45.05;100877.86;1787173;79;21291;-46
2021/07/25 10:43:06;;;;;;;;;;;;;;;26.21;45.07;100876.12;1783867;79;20315;-47
2021/07/25 10:45:34;;;;;;;;;;;;;;;26.22;45.07;100872.17;1781321;79;20128;-47
2021/07/25 10:48:15;;;;;;;;;;;;;;;26.24;45.09;100869.82;1784000;79;20696;-47
2021/07/25 10:50:42;;;;;;;;;;;;;;;26.25;45.10;100871.45;1780243;79;20424;-46
2021/07/25 10:53:17;;;;;;;;;;;;;;;26.26;45.10;100868.90;1782491;79;21021;-45
2021/07/25 10:55:43;;;;;;;;;;;;;;;26.29;45.09;100872.95;1751814;80;20383;-46
2021/07/25 10:58:13;;;;;;;;;;;;;;;26.30;45.08;100865.62;1783356;79;20108;-48
2021/07/25 11:00:55;;;;;;;;;;;;;;;26.32;45.05;100866.65;1781106;79;20192;-50
2021/07/25 11:03:35;;;;;;;;;;;;;;;26.33;45.03;100862.12;1780195;79;20161;-47
2021/07/25 11:06:09;;;;;;;;;;;;;;;26.34;45.02;100852.59;1785030;79;21154;-49
2021/07/25 11:08:54;;;;;;;;;;;;;;;26.36;45.02;100855.81;1780911;79;20211;-49
2021/07/25 11:11:34;;;;;;;;;;;;;;;26.36;45.04;100854.42;1781626;79;20390;-46
2021/07/25 11:13:56;;;;;;;;;;;;;;;26.38;45.04;100854.08;1781935;79;20549;-45
2021/07/25 11:16:32;;;;;;;;;;;;;;;26.40;45.04;100857.89;1778954;79;20155;-47
2021/07/25 11:19:13;;;;;;;;;;;;;;;26.41;45.04;100852.55;1784955;79;21312;-47
2021/07/25 11:21:48;;;;;;;;;;;;;;;26.43;45.05;100850.22;1779200;79;20239;-49
2021/07/25 11:24:23;;;;;;;;;;;;;;;26.44;45.04;100850.46;1779393;79;20136;-46
2021/07/25 11:26:49;;;;;;;;;;;;;;;26.44;45.07;100848.45;1779719;79;20174;-51
2021/07/25 11:29:21;;;;;;;;;;;;;;;26.46;45.07;100842.53;1780186;79;20207;-50
2021/07/25 11:31:47;;;;;;;;;;;;;;;26.47;45.06;100842.19;1777658;79;20958;-48
2021/07/25 11:34:16;;;;;;;;;;;;;;;26.48;45.06;100836.80;1783863;79;20187;-48
2021/07/25 11:36:42;;;;;;;;;;;;;;;26.51;45.10;100845.06;1780042;79;20451;-47
2021/07/25 11:39:08;;;;;;;;;;;;;;;26.51;45.11;100836.11;1782976;79;20740;-49
2021/07/25 11:41:38;;;;;;;;;;;;;;;26.53;45.10;100844.92;1775937;79;20204;-47
2021/07/25 11:44:10;;;;;;;;;;;;;;;26.55;45.10;100831.44;1779261;79;21294;-47
2021/07/25 11:46:45;;;;;;;;;;;;;;;26.56;45.09;100837.25;1777053;79;20414;-48
2021/07/25 11:49:24;;;;;;;;;;;;;;;26.58;45.07;100832.69;1775193;79;20171;-48
2021/07/25 11:51:55;;;;;;;;;;;;;;;26.59;45.07;100834.32;1775560;79;20153;-48
2021/07/25 11:54:24;;;;;;;;;;;;;;;26.61;45.05;100834.17;1780774;79;20110;-54
2021/07/25 11:57:02;;;;;;;;;;;;;;;26.63;45.06;100832.44;1772954;79;21177;-54
2021/07/25 11:59:31;;;;;;;;;;;;;;;26.63;45.06;100832.44;1726989;80;20235;-54
2021/07/25 12:01:57;;;;;;;;;;;;;;;26.66;45.04;100837.29;1770558;79;20172;-55
2021/07/25 12:04:25;;;;;;;;;;;;;;;26.68;45.04;100837.76;1779492;79;20345;-54
2021/07/25 12:07:11;;;;;;;;;;;;;;;26.68;45.04;100838.58;1773809;79;20386;-54
2021/07/25 12:09:37;;;;;;;;;;;;;;;26.70;45.07;100828.43;1771072;79;21320;-55
2021/07/25 12:12:08;;;;;;;;;;;;;;;26.71;45.07;100818.89;1775861;79;20157;-54
2021/07/25 12:14:37;;;;;;;;;;;;;;;26.73;45.08;100823.55;1777476;79;20477;-54
2021/07/25 12:17:03;;;;;;;;;;;;;;;26.74;45.14;100817.58;1775959;79;20204;-54
2021/07/25 12:19:33;;;;;;;;;;;;;;;26.75;45.19;100815.61;1778056;79;20457;-54
2021/07/25 12:22:09;;;;;;;;;;;;;;;26.77;45.22;100817.47;1775162;80;21118;-55
2021/07/25 12:24:36;;;;;;;;;;;;;;;26.78;45.18;100809.30;1774351;79;20205;-55
2021/07/25 12:27:03;;;;;;;;;;;;;;;26.78;45.17;100802.32;1774857;79;20144;-54
2021/07/25 12:29:45;;;;;;;;;;;;;;;26.78;45.10;100805.11;1776092;79;20434;-54
2021/07/25 12:32:30;;;;;;;;;;;;;;;26.77;45.07;100798.74;1781344;79;20493;-54
2021/07/25 12:35:12;;;;;;;;;;;;;;;26.76;45.03;100800.48;1779387;79;21349;-53
2021/07/25 12:37:54;;;;;;;;;;;;;;;26.75;44.92;100803.05;1774628;79;20170;-55
2021/07/25 12:40:31;;;;;;;;;;;;;;;26.72;44.82;100800.41;1775678;79;20439;-55